sensor_id;sensor_type;location;lat;lon;timestamp;pressure;altitude;pressure_sealevel;temperature;humidity
43312;BME280;30041;48.300;16.352;2023-03-03T00:00:25;99968.50;;;21.91;40.64
43312;BME280;30041;48.300;16.352;2023-03-03T00:02:50;99965.78;;;21.91;40.59
43312;BME280;30041;48.300;16.352;2023-03-03T00:05:16;99970.38;;;21.90;40.83
43312;BME280;30041;48.300;16.352;2023-03-03T00:07:45;99977.41;;;21.91;40.52
43312;BME280;30041;48.300;16.352;2023-03-03T00:10:12;99973.06;;;21.90;40.67
43312;BME280;30041;48.300;16.352;2023-03-03T00:12:46;99982.00;;;21.91;40.57
43312;BME280;30041;48.300;16.352;2023-03-03T00:15:30;99966.59;;;21.91;40.52
43312;BME280;30041;48.300;16.352;2023-03-03T00:17:56;99967.44;;;21.92;40.62
43312;BME280;30041;48.300;16.352;2023-03-03T00:20:35;99967.44;;;21.92;40.57
43312;BME280;30041;48.300;16.352;2023-03-03T00:26:15;99961.44;;;21.90;40.61
43312;BME280;30041;48.300;16.352;2023-03-03T00:28:47;99963.69;;;21.93;40.62
43312;BME280;30041;48.300;16.352;2023-03-03T00:31:20;99957.44;;;21.92;40.56
43312;BME280;30041;48.300;16.352;2023-03-03T00:33:50;99959.91;;;21.94;40.68
43312;BME280;30041;48.300;16.352;2023-03-03T00:36:36;99957.44;;;21.92;40.50
43312;BME280;30041;48.300;16.352;2023-03-03T00:39:18;99955.34;;;21.94;40.57
43312;BME280;30041;48.300;16.352;2023-03-03T00:41:46;99957.81;;;21.96;40.53
43312;BME280;30041;48.300;16.352;2023-03-03T00:44:41;99958.88;;;21.95;40.55
43312;BME280;30041;48.300;16.352;2023-03-03T00:47:18;99960.72;;;21.94;40.60
43312;BME280;30041;48.300;16.352;2023-03-03T00:49:47;99956.19;;;21.95;40.64
43312;BME280;30041;48.300;16.352;2023-03-03T00:52:16;99953.50;;;21.95;40.72
43312;BME280;30041;48.300;16.352;2023-03-03T00:54:42;99951.59;;;21.95;40.55
43312;BME280;30041;48.300;16.352;2023-03-03T00:57:09;99950.78;;;21.95;40.44
43312;BME280;30041;48.300;16.352;2023-03-03T00:59:35;99938.94;;;21.96;40.49
43312;BME280;30041;48.300;16.352;2023-03-03T01:02:00;99941.63;;;21.96;40.67
43312;BME280;30041;48.300;16.352;2023-03-03T01:04:26;99928.13;;;21.96;40.39
43312;BME280;30041;48.300;16.352;2023-03-03T01:06:51;99930.00;;;21.95;40.55
43312;BME280;30041;48.300;16.352;2023-03-03T01:09:17;99929.78;;;21.97;40.54
43312;BME280;30041;48.300;16.352;2023-03-03T01:11:42;99928.94;;;21.96;40.47
43312;BME280;30041;48.300;16.352;2023-03-03T01:14:08;99928.72;;;21.98;40.26
43312;BME280;30041;48.300;16.352;2023-03-03T01:16:34;99925.44;;;21.96;40.53
43312;BME280;30041;48.300;16.352;2023-03-03T01:19:00;99927.91;;;21.97;40.47
43312;BME280;30041;48.300;16.352;2023-03-03T01:21:25;99921.44;;;21.98;40.49
43312;BME280;30041;48.300;16.352;2023-03-03T01:23:51;99929.53;;;21.98;40.65
43312;BME280;30041;48.300;16.352;2023-03-03T01:26:17;99930.34;;;21.99;40.71
43312;BME280;30041;48.300;16.352;2023-03-03T01:28:42;99928.72;;;21.98;40.33
43312;BME280;30041;48.300;16.352;2023-03-03T01:31:08;99930.34;;;21.99;40.48
43312;BME280;30041;48.300;16.352;2023-03-03T01:33:34;99925.78;;;22.00;40.39
43312;BME280;30041;48.300;16.352;2023-03-03T01:36:00;99929.31;;;22.00;40.39
43312;BME280;30041;48.300;16.352;2023-03-03T01:38:27;99921.00;;;22.02;40.38
43312;BME280;30041;48.300;16.352;2023-03-03T01:40:54;99929.91;;;22.02;40.18
43312;BME280;30041;48.300;16.352;2023-03-03T01:43:20;99925.53;;;22.01;40.52
43312;BME280;30041;48.300;16.352;2023-03-03T01:50:48;99919.09;;;22.02;40.35
43312;BME280;30041;48.300;16.352;2023-03-03T01:53:19;99915.59;;;22.02;40.37
43312;BME280;30041;48.300;16.352;2023-03-03T01:55:49;99913.72;;;22.02;40.40
43312;BME280;30041;48.300;16.352;2023-03-03T02:00:47;99920.72;;;22.03;40.31
43312;BME280;30041;48.300;16.352;2023-03-03T02:03:13;99908.91;;;22.04;40.42
43312;BME280;30041;48.300;16.352;2023-03-03T02:05:40;99914.28;;;22.04;40.37
43312;BME280;30041;48.300;16.352;2023-03-03T02:08:08;99914.28;;;22.04;40.31
43312;BME280;30041;48.300;16.352;2023-03-03T02:10:36;99910.53;;;22.05;40.23
43312;BME280;30041;48.300;16.352;2023-03-03T02:13:02;99915.94;;;22.05;40.29
43312;BME280;30041;48.300;16.352;2023-03-03T02:15:31;99918.63;;;22.05;40.35
43312;BME280;30041;48.300;16.352;2023-03-03T02:18:09;99919.69;;;22.04;40.16
43312;BME280;30041;48.300;16.352;2023-03-03T02:21:01;99915.34;;;22.03;40.52
43312;BME280;30041;48.300;16.352;2023-03-03T02:23:49;99907.84;;;22.05;40.24
43312;BME280;30041;48.300;16.352;2023-03-03T02:26:18;99913.00;;;22.07;40.21
43312;BME280;30041;48.300;16.352;2023-03-03T02:28:45;99913.81;;;22.07;40.22
43312;BME280;30041;48.300;16.352;2023-03-03T02:31:13;99905.94;;;22.06;40.02
43312;BME280;30041;48.300;16.352;2023-03-03T02:33:41;99905.94;;;22.06;40.35
43312;BME280;30041;48.300;16.352;2023-03-03T02:36:16;99911.13;;;22.07;40.15
43312;BME280;30041;48.300;16.352;2023-03-03T02:41:34;99907.38;;;22.08;40.13
43312;BME280;30041;48.300;16.352;2023-03-03T02:44:06;99903.03;;;22.07;40.21
43312;BME280;30041;48.300;16.352;2023-03-03T02:46:35;99902.78;;;22.09;40.33
43312;BME280;30041;48.300;16.352;2023-03-03T02:49:03;99903.59;;;22.09;40.33
43312;BME280;30041;48.300;16.352;2023-03-03T02:51:29;99907.38;;;22.08;40.06
43312;BME280;30041;48.300;16.352;2023-03-03T02:53:54;99901.97;;;22.08;40.20
43312;BME280;30041;48.300;16.352;2023-03-03T02:56:20;99907.38;;;22.08;40.25
43312;BME280;30041;48.300;16.352;2023-03-03T02:58:46;99898.22;;;22.09;40.23
43312;BME280;30041;48.300;16.352;2023-03-03T03:01:11;99895.75;;;22.08;40.33
43312;BME280;30041;48.300;16.352;2023-03-03T03:03:37;99904.69;;;22.08;40.19
43312;BME280;30041;48.300;16.352;2023-03-03T03:06:03;99901.97;;;22.08;40.25
43312;BME280;30041;48.300;16.352;2023-03-03T03:08:29;99900.09;;;22.09;40.37
43312;BME280;30041;48.300;16.352;2023-03-03T03:10:54;99896.59;;;22.08;40.46
43312;BME280;30041;48.300;16.352;2023-03-03T03:13:20;99898.69;;;22.06;40.22
43312;BME280;30041;48.300;16.352;2023-03-03T03:15:45;99893.88;;;22.08;40.27
43312;BME280;30041;48.300;16.352;2023-03-03T03:18:11;99896.81;;;22.07;40.33
43312;BME280;30041;48.300;16.352;2023-03-03T03:20:38;99892.22;;;22.07;40.24
43312;BME280;30041;48.300;16.352;2023-03-03T03:23:03;99884.13;;;22.07;40.29
43312;BME280;30041;48.300;16.352;2023-03-03T03:25:29;99887.63;;;22.08;40.27
43312;BME280;30041;48.300;16.352;2023-03-03T03:27:54;99888.50;;;22.08;40.22
43312;BME280;30041;48.300;16.352;2023-03-03T03:30:20;99879.53;;;22.08;40.10
43312;BME280;30041;48.300;16.352;2023-03-03T03:32:46;99881.19;;;22.09;40.44
43312;BME280;30041;48.300;16.352;2023-03-03T03:35:12;99878.72;;;22.07;40.16
43312;BME280;30041;48.300;16.352;2023-03-03T03:37:37;99878.50;;;22.09;40.25
43312;BME280;30041;48.300;16.352;2023-03-03T03:40:04;99876.84;;;22.08;40.22
43312;BME280;30041;48.300;16.352;2023-03-03T03:42:29;99877.69;;;22.08;40.26
43312;BME280;30041;48.300;16.352;2023-03-03T03:44:55;99882.00;;;22.09;40.16
43312;BME280;30041;48.300;16.352;2023-03-03T03:47:20;99875.81;;;22.09;40.37
43312;BME280;30041;48.300;16.352;2023-03-03T03:49:46;99875.00;;;22.08;40.23
43312;BME280;30041;48.300;16.352;2023-03-03T03:52:12;99875.00;;;22.08;40.22
43312;BME280;30041;48.300;16.352;2023-03-03T03:54:37;99878.50;;;22.09;40.21
43312;BME280;30041;48.300;16.352;2023-03-03T03:57:03;99887.19;;;22.11;40.31
43312;BME280;30041;48.300;16.352;2023-03-03T03:59:28;99880.72;;;22.12;40.11
43312;BME280;30041;48.300;16.352;2023-03-03T04:01:54;99883.41;;;22.12;40.03
43312;BME280;30041;48.300;16.352;2023-03-03T04:04:20;99879.91;;;22.11;40.20
43312;BME280;30041;48.300;16.352;2023-03-03T04:06:45;99885.53;;;22.10;39.94
43312;BME280;30041;48.300;16.352;2023-03-03T04:09:11;99890.69;;;22.11;40.19
43312;BME280;30041;48.300;16.352;2023-03-03T04:11:37;99891.53;;;22.12;39.93
43312;BME280;30041;48.300;16.352;2023-03-03T04:14:02;99896.91;;;22.12;40.04
43312;BME280;30041;48.300;16.352;2023-03-03T04:16:28;99892.59;;;22.11;40.05
43312;BME280;30041;48.300;16.352;2023-03-03T04:18:53;99901.28;;;22.13;39.98
43312;BME280;30041;48.300;16.352;2023-03-03T04:21:19;99909.38;;;22.13;40.18
43312;BME280;30041;48.300;16.352;2023-03-03T04:23:44;99913.94;;;22.12;39.96
43312;BME280;30041;48.300;16.352;2023-03-03T04:26:10;99911.47;;;22.11;40.01
43312;BME280;30041;48.300;16.352;2023-03-03T04:28:36;99915.81;;;22.12;40.03
43312;BME280;30041;48.300;16.352;2023-03-03T04:31:01;99920.41;;;22.11;40.07
43312;BME280;30041;48.300;16.352;2023-03-03T04:33:27;99915.00;;;22.11;39.97
43312;BME280;30041;48.300;16.352;2023-03-03T04:35:52;99912.28;;;22.11;40.08
43312;BME280;30041;48.300;16.352;2023-03-03T04:38:18;99909.81;;;22.10;40.12
43312;BME280;30041;48.300;16.352;2023-03-03T04:40:44;99909.59;;;22.11;40.13
43312;BME280;30041;48.300;16.352;2023-03-03T04:43:09;99901.50;;;22.11;40.04
43312;BME280;30041;48.300;16.352;2023-03-03T04:45:35;99897.72;;;22.12;40.08
43312;BME280;30041;48.300;16.352;2023-03-03T04:48:01;99904.19;;;22.11;40.11
43312;BME280;30041;48.300;16.352;2023-03-03T04:50:26;99902.31;;;22.12;40.08
43312;BME280;30041;48.300;16.352;2023-03-03T04:52:52;99902.31;;;22.12;40.03
43312;BME280;30041;48.300;16.352;2023-03-03T04:55:18;99895.88;;;22.13;40.24
43312;BME280;30041;48.300;16.352;2023-03-03T04:57:44;99895.88;;;22.13;40.19
43312;BME280;30041;48.300;16.352;2023-03-03T05:00:11;99897.72;;;22.12;40.01
43312;BME280;30041;48.300;16.352;2023-03-03T05:02:40;99903.50;;;22.16;40.12
43312;BME280;30041;48.300;16.352;2023-03-03T05:05:07;99901.88;;;22.15;40.15
43312;BME280;30041;48.300;16.352;2023-03-03T05:07:33;99907.25;;;22.15;40.19
43312;BME280;30041;48.300;16.352;2023-03-03T05:09:59;99904.56;;;22.15;40.03
43312;BME280;30041;48.300;16.352;2023-03-03T05:12:24;99908.06;;;22.15;39.96
43312;BME280;30041;48.300;16.352;2023-03-03T05:14:50;99908.06;;;22.15;40.15
43312;BME280;30041;48.300;16.352;2023-03-03T05:17:15;99906.41;;;22.14;40.21
43312;BME280;30041;48.300;16.352;2023-03-03T05:19:41;99910.78;;;22.15;40.16
43312;BME280;30041;48.300;16.352;2023-03-03T05:22:07;99916.75;;;22.17;40.10
43312;BME280;30041;48.300;16.352;2023-03-03T05:24:32;99924.84;;;22.17;39.94
43312;BME280;30041;48.300;16.352;2023-03-03T05:26:58;99926.50;;;22.18;40.30
43312;BME280;30041;48.300;16.352;2023-03-03T05:29:23;99928.97;;;22.20;40.29
43312;BME280;30041;48.300;16.352;2023-03-03T05:31:49;99929.44;;;22.17;40.18
43312;BME280;30041;48.300;16.352;2023-03-03T05:34:15;99928.38;;;22.18;40.22
43312;BME280;30041;48.300;16.352;2023-03-03T05:36:40;99932.69;;;22.19;40.04
43312;BME280;30041;48.300;16.352;2023-03-03T05:39:06;99947.03;;;22.20;40.08
43312;BME280;30041;48.300;16.352;2023-03-03T05:41:32;99939.75;;;22.20;40.27
43312;BME280;30041;48.300;16.352;2023-03-03T05:43:57;99945.16;;;22.20;40.20
43312;BME280;30041;48.300;16.352;2023-03-03T05:46:23;99947.88;;;22.20;40.15
43312;BME280;30041;48.300;16.352;2023-03-03T05:48:48;99944.34;;;22.20;40.13
43312;BME280;30041;48.300;16.352;2023-03-03T05:51:14;99947.66;;;22.22;40.08
43312;BME280;30041;48.300;16.352;2023-03-03T05:53:40;99957.97;;;22.13;40.05
43312;BME280;30041;48.300;16.352;2023-03-03T05:56:05;99955.72;;;22.10;39.98
43312;BME280;30041;48.300;16.352;2023-03-03T05:58:31;99959.25;;;22.10;40.18
43312;BME280;30041;48.300;16.352;2023-03-03T06:00:57;99957.00;;;22.07;39.58
43312;BME280;30041;48.300;16.352;2023-03-03T06:03:22;99965.09;;;22.07;39.73
43312;BME280;30041;48.300;16.352;2023-03-03T06:05:48;99966.97;;;22.07;39.68
43312;BME280;30041;48.300;16.352;2023-03-03T06:08:13;99973.41;;;22.06;39.63
43312;BME280;30041;48.300;16.352;2023-03-03T06:10:39;99976.38;;;22.04;39.74
43312;BME280;30041;48.300;16.352;2023-03-03T06:13:05;99976.38;;;22.04;39.61
43312;BME280;30041;48.300;16.352;2023-03-03T06:15:30;99978.81;;;22.06;39.60
43312;BME280;30041;48.300;16.352;2023-03-03T06:17:56;99973.19;;;22.07;39.60
43312;BME280;30041;48.300;16.352;2023-03-03T06:20:22;99972.59;;;22.05;39.79
43312;BME280;30041;48.300;16.352;2023-03-03T06:22:47;99969.09;;;22.05;39.43
43312;BME280;30041;48.300;16.352;2023-03-03T06:25:13;99970.97;;;22.04;39.63
43312;BME280;30041;48.300;16.352;2023-03-03T06:27:38;99981.78;;;22.04;39.38
43312;BME280;30041;48.300;16.352;2023-03-03T06:30:05;99981.03;;;21.85;39.92
43312;BME280;30041;48.300;16.352;2023-03-03T06:32:31;99978.63;;;21.65;40.56
43312;BME280;30041;48.300;16.352;2023-03-03T06:34:56;99982.84;;;21.61;40.78
43312;BME280;30041;48.300;16.352;2023-03-03T06:37:22;99980.28;;;21.66;40.79
43312;BME280;30041;48.300;16.352;2023-03-03T06:39:48;99991.50;;;21.63;40.66
43312;BME280;30041;48.300;16.352;2023-03-03T06:42:13;99986.28;;;21.68;40.49
43312;BME280;30041;48.300;16.352;2023-03-03T06:44:39;99990.81;;;21.68;40.62
43312;BME280;30041;48.300;16.352;2023-03-03T06:47:04;99986.31;;;21.80;40.38
43312;BME280;30041;48.300;16.352;2023-03-03T06:49:30;99991.06;;;21.66;40.64
43312;BME280;30041;48.300;16.352;2023-03-03T06:51:58;99997.56;;;21.77;40.56
43312;BME280;30041;48.300;16.352;2023-03-03T06:54:30;99992.72;;;21.67;40.59
43312;BME280;30041;48.300;16.352;2023-03-03T06:57:00;99992.38;;;21.64;40.51
43312;BME280;30041;48.300;16.352;2023-03-03T06:59:32;99988.22;;;21.61;40.55
43312;BME280;30041;48.300;16.352;2023-03-03T07:01:58;99984.50;;;21.62;40.36
43312;BME280;30041;48.300;16.352;2023-03-03T07:04:30;99993.63;;;21.61;40.53
43312;BME280;30041;48.300;16.352;2023-03-03T07:07:09;99999.00;;;21.61;40.53
43312;BME280;30041;48.300;16.352;2023-03-03T07:09:35;99997.84;;;21.57;40.47
43312;BME280;30041;48.300;16.352;2023-03-03T07:12:08;100002.78;;;21.60;40.34
43312;BME280;30041;48.300;16.352;2023-03-03T07:14:43;100004.06;;;21.58;40.48
43312;BME280;30041;48.300;16.352;2023-03-03T07:17:16;100009.69;;;21.56;40.51
43312;BME280;30041;48.300;16.352;2023-03-03T07:19:43;100008.16;;;21.60;40.25
43312;BME280;30041;48.300;16.352;2023-03-03T07:22:17;100015.09;;;21.68;40.23
43312;BME280;30041;48.300;16.352;2023-03-03T07:24:45;100031.94;;;21.82;39.79
43312;BME280;30041;48.300;16.352;2023-03-03T07:27:26;100036.28;;;21.94;39.92
43312;BME280;30041;48.300;16.352;2023-03-03T07:29:54;100032.91;;;21.99;39.87
43312;BME280;30041;48.300;16.352;2023-03-03T07:32:32;100041.59;;;22.01;39.92
43312;BME280;30041;48.300;16.352;2023-03-03T07:35:19;100047.38;;;22.05;40.07
43312;BME280;30041;48.300;16.352;2023-03-03T07:37:48;100045.13;;;22.02;40.08
43312;BME280;30041;48.300;16.352;2023-03-03T07:42:53;100045.03;;;21.66;38.29
43312;BME280;30041;48.300;16.352;2023-03-03T07:45:35;100048.66;;;21.42;39.51
43312;BME280;30041;48.300;16.352;2023-03-03T07:50:48;100043.47;;;21.59;39.57
43312;BME280;30041;48.300;16.352;2023-03-03T07:53:32;100040.41;;;21.55;39.92
43312;BME280;30041;48.300;16.352;2023-03-03T07:55:58;100042.28;;;21.54;39.81
43312;BME280;30041;48.300;16.352;2023-03-03T07:58:36;100032.41;;;21.48;39.79
43312;BME280;30041;48.300;16.352;2023-03-03T08:01:36;100030.75;;;21.47;39.94
43312;BME280;30041;48.300;16.352;2023-03-03T08:04:04;100033.81;;;21.51;39.84
43312;BME280;30041;48.300;16.352;2023-03-03T08:06:57;100033.59;;;21.52;39.94
43312;BME280;30041;48.300;16.352;2023-03-03T08:09:30;100032.91;;;21.57;39.88
43312;BME280;30041;48.300;16.352;2023-03-03T08:12:18;100024.03;;;21.68;39.72
43312;BME280;30041;48.300;16.352;2023-03-03T08:14:44;100020.25;;;21.58;39.87
43312;BME280;30041;48.300;16.352;2023-03-03T08:17:21;100028.50;;;21.74;39.68
43312;BME280;30041;48.300;16.352;2023-03-03T08:19:49;100037.06;;;21.71;39.66
43312;BME280;30041;48.300;16.352;2023-03-03T08:22:23;100025.78;;;21.63;39.84
43312;BME280;30041;48.300;16.352;2023-03-03T08:24:49;100030.25;;;21.69;40.01
43312;BME280;30041;48.300;16.352;2023-03-03T08:27:15;100035.06;;;21.67;40.09
43312;BME280;30041;48.300;16.352;2023-03-03T08:29:43;100031.44;;;21.73;40.01
43312;BME280;30041;48.300;16.352;2023-03-03T08:32:11;100026.28;;;21.71;40.32
43312;BME280;30041;48.300;16.352;2023-03-03T08:34:36;100032.53;;;21.84;40.00
43312;BME280;30041;48.300;16.352;2023-03-03T08:37:02;100032.88;;;21.87;40.04
43312;BME280;30041;48.300;16.352;2023-03-03T08:39:27;100039.25;;;21.93;40.20
43312;BME280;30041;48.300;16.352;2023-03-03T08:41:53;100039.69;;;21.90;39.98
43312;BME280;30041;48.300;16.352;2023-03-03T08:44:19;100039.78;;;21.83;40.23
43312;BME280;30041;48.300;16.352;2023-03-03T08:46:44;100046.38;;;21.87;40.08
43312;BME280;30041;48.300;16.352;2023-03-03T08:51:53;100053.13;;;22.08;39.93
43312;BME280;30041;48.300;16.352;2023-03-03T08:54:19;100063.09;;;22.08;39.85
43312;BME280;30041;48.300;16.352;2023-03-03T08:56:44;100061.34;;;22.13;40.05
43312;BME280;30041;48.300;16.352;2023-03-03T08:59:10;100064.25;;;22.00;40.12
43312;BME280;30041;48.300;16.352;2023-03-03T09:01:35;100075.75;;;22.07;39.60
43312;BME280;30041;48.300;16.352;2023-03-03T09:04:01;100065.94;;;22.13;39.85
43312;BME280;30041;48.300;16.352;2023-03-03T09:06:27;100074.13;;;22.06;40.10
43312;BME280;30041;48.300;16.352;2023-03-03T09:08:52;100075.31;;;22.10;40.14
43312;BME280;30041;48.300;16.352;2023-03-03T09:11:23;100071.78;;;22.10;40.14
43312;BME280;30041;48.300;16.352;2023-03-03T09:13:49;100075.31;;;22.10;40.08
43312;BME280;30041;48.300;16.352;2023-03-03T09:16:15;100079.44;;;22.13;39.88
43312;BME280;30041;48.300;16.352;2023-03-03T09:18:41;100086.56;;;22.07;40.00
43312;BME280;30041;48.300;16.352;2023-03-03T09:21:29;100087.84;;;22.05;40.02
43312;BME280;30041;48.300;16.352;2023-03-03T09:23:56;100087.63;;;22.06;39.94
43312;BME280;30041;48.300;16.352;2023-03-03T09:26:29;100092.59;;;21.79;40.69
43312;BME280;30041;48.300;16.352;2023-03-03T09:29:22;100092.38;;;21.62;40.93
43312;BME280;30041;48.300;16.352;2023-03-03T09:31:51;100096.78;;;21.75;40.60
43312;BME280;30041;48.300;16.352;2023-03-03T09:34:36;100087.84;;;22.05;40.53
43312;BME280;30041;48.300;16.352;2023-03-03T09:37:21;100088.81;;;22.10;40.15
43312;BME280;30041;48.300;16.352;2023-03-03T09:39:55;100096.16;;;22.22;39.88
43312;BME280;30041;48.300;16.352;2023-03-03T09:42:27;100090.13;;;22.20;39.94
43312;BME280;30041;48.300;16.352;2023-03-03T09:50:33;100086.16;;;21.92;40.42
43312;BME280;30041;48.300;16.352;2023-03-03T10:04:28;100073.97;;;22.01;40.41
43312;BME280;30041;48.300;16.352;2023-03-03T10:07:26;100073.84;;;21.96;40.61
43312;BME280;30041;48.300;16.352;2023-03-03T10:10:10;100064.91;;;21.35;35.44
43312;BME280;30041;48.300;16.352;2023-03-03T10:18:00;100061.09;;;22.03;38.74
43312;BME280;30041;48.300;16.352;2023-03-03T10:28:51;100039.09;;;21.88;39.17
43312;BME280;30041;48.300;16.352;2023-03-03T10:31:29;100035.47;;;21.94;39.34
43312;BME280;30041;48.300;16.352;2023-03-03T10:37:31;100019.97;;;21.77;40.11
43312;BME280;30041;48.300;16.352;2023-03-03T10:40:18;100015.09;;;21.68;39.01
43312;BME280;30041;48.300;16.352;2023-03-03T10:43:06;100011.47;;;21.62;39.78
43312;BME280;30041;48.300;16.352;2023-03-03T10:51:02;100017.47;;;21.64;40.16
43312;BME280;30041;48.300;16.352;2023-03-03T10:56:14;100021.66;;;21.60;40.45
43312;BME280;30041;48.300;16.352;2023-03-03T11:01:39;100020.25;;;21.58;40.43
43312;BME280;30041;48.300;16.352;2023-03-03T11:04:39;100017.56;;;21.58;40.46
43312;BME280;30041;48.300;16.352;2023-03-03T11:13:30;100035.00;;;21.55;40.64
43312;BME280;30041;48.300;16.352;2023-03-03T11:15:49;100025.41;;;21.59;40.34
43312;BME280;30041;48.300;16.352;2023-03-03T11:18:27;100026.84;;;21.62;40.42
43312;BME280;30041;48.300;16.352;2023-03-03T11:21:05;100020.84;;;21.60;40.73
43312;BME280;30041;48.300;16.352;2023-03-03T11:23:48;100012.28;;;21.63;40.47
43312;BME280;30041;48.300;16.352;2023-03-03T11:26:28;100017.91;;;21.61;40.38
43312;BME280;30041;48.300;16.352;2023-03-03T11:32:19;100001.38;;;21.58;40.61
43312;BME280;30041;48.300;16.352;2023-03-03T11:34:53;99996.91;;;21.63;40.53
43312;BME280;30041;48.300;16.352;2023-03-03T11:37:34;99997.28;;;21.67;40.37
43312;BME280;30041;48.300;16.352;2023-03-03T11:40:14;99997.88;;;21.69;40.28
43312;BME280;30041;48.300;16.352;2023-03-03T11:42:57;100004.88;;;21.88;40.19
43312;BME280;30041;48.300;16.352;2023-03-03T11:45:36;99999.81;;;21.92;40.07
43312;BME280;30041;48.300;16.352;2023-03-03T11:48:35;99994.03;;;21.76;38.85
43312;BME280;30041;48.300;16.352;2023-03-03T11:51:04;99994.50;;;21.85;39.45
43312;BME280;30041;48.300;16.352;2023-03-03T11:56:47;99985.53;;;22.15;39.49
43312;BME280;30041;48.300;16.352;2023-03-03T12:01:56;99987.28;;;21.97;40.13
43312;BME280;30041;48.300;16.352;2023-03-03T12:04:36;99972.72;;;21.98;39.98
43312;BME280;30041;48.300;16.352;2023-03-03T12:07:39;99972.00;;;21.91;40.22
43312;BME280;30041;48.300;16.352;2023-03-03T12:21:55;99939.28;;;22.00;40.57
43312;BME280;30041;48.300;16.352;2023-03-03T12:24:47;99940.81;;;22.07;40.16
43312;BME280;30041;48.300;16.352;2023-03-03T12:27:22;99940.91;;;22.12;40.08
43312;BME280;30041;48.300;16.352;2023-03-03T12:32:57;99927.34;;;22.43;39.61
43312;BME280;30041;48.300;16.352;2023-03-03T12:35:38;99919.94;;;22.38;39.80
43312;BME280;30041;48.300;16.352;2023-03-03T12:38:10;99917.38;;;22.31;39.91
43312;BME280;30041;48.300;16.352;2023-03-03T12:41:04;99914.44;;;22.33;40.00
43312;BME280;30041;48.300;16.352;2023-03-03T12:46:19;99904.09;;;22.30;39.81
43312;BME280;30041;48.300;16.352;2023-03-03T12:48:46;99906.34;;;22.33;40.08
43312;BME280;30041;48.300;16.352;2023-03-03T12:56:30;99905.25;;;22.34;40.14
43312;BME280;30041;48.300;16.352;2023-03-03T12:59:29;99900.91;;;22.21;40.41
43312;BME280;30041;48.300;16.352;2023-03-03T13:02:38;99900.69;;;22.34;40.25
43312;BME280;30041;48.300;16.352;2023-03-03T13:05:18;99897.78;;;22.24;40.46
43312;BME280;30041;48.300;16.352;2023-03-03T13:08:29;99896.69;;;22.13;40.60
43312;BME280;30041;48.300;16.352;2023-03-03T13:11:13;99883.69;;;22.10;40.77
43312;BME280;30041;48.300;16.352;2023-03-03T13:19:55;99875.69;;;22.15;40.60
43312;BME280;30041;48.300;16.352;2023-03-03T13:25:05;99876.84;;;22.20;40.52
43312;BME280;30041;48.300;16.352;2023-03-03T13:27:44;99865.81;;;22.21;40.56
43312;BME280;30041;48.300;16.352;2023-03-03T13:30:22;99867.59;;;22.15;40.47
43312;BME280;30041;48.300;16.352;2023-03-03T13:32:56;99861.03;;;22.00;40.97
43312;BME280;30041;48.300;16.352;2023-03-03T13:35:46;99879.06;;;21.99;40.82
43312;BME280;30041;48.300;16.352;2023-03-03T13:38:30;99861.63;;;22.02;40.64
43312;BME280;30041;48.300;16.352;2023-03-03T13:44:14;99867.94;;;22.07;40.49
43312;BME280;30041;48.300;16.352;2023-03-03T13:47:02;99857.03;;;22.02;40.80
43312;BME280;30041;48.300;16.352;2023-03-03T13:52:23;99861.84;;;22.00;41.03
43312;BME280;30041;48.300;16.352;2023-03-03T14:05:25;99858.56;;;21.98;41.35
43312;BME280;30041;48.300;16.352;2023-03-03T14:11:08;99839.88;;;21.96;41.51
43312;BME280;30041;48.300;16.352;2023-03-03T14:14:03;99843.44;;;21.97;41.73
43312;BME280;30041;48.300;16.352;2023-03-03T14:16:37;99839.66;;;21.98;41.66
43312;BME280;30041;48.300;16.352;2023-03-03T14:19:14;99838.84;;;21.97;41.71
43312;BME280;30041;48.300;16.352;2023-03-03T14:21:58;99839.66;;;21.98;41.52
43312;BME280;30041;48.300;16.352;2023-03-03T14:24:28;99843.44;;;21.97;41.51
43312;BME280;30041;48.300;16.352;2023-03-03T14:26:56;99842.38;;;21.98;41.48
43312;BME280;30041;48.300;16.352;2023-03-03T14:31:51;99843.44;;;21.97;41.64
43312;BME280;30041;48.300;16.352;2023-03-03T14:36:57;99840.38;;;21.93;41.88
43312;BME280;30041;48.300;16.352;2023-03-03T14:39:33;99840.16;;;21.95;41.65
43312;BME280;30041;48.300;16.352;2023-03-03T14:42:00;99835.78;;;21.94;41.80
43312;BME280;30041;48.300;16.352;2023-03-03T14:44:29;99843.28;;;21.92;41.95
43312;BME280;30041;48.300;16.352;2023-03-03T14:49:37;99838.97;;;21.91;41.96
43312;BME280;30041;48.300;16.352;2023-03-03T14:54:45;99846.59;;;21.94;41.85
43312;BME280;30041;48.300;16.352;2023-03-03T14:57:16;99845.41;;;21.90;41.89
43312;BME280;30041;48.300;16.352;2023-03-03T15:00:45;99838.97;;;21.91;41.95
43312;BME280;30041;48.300;16.352;2023-03-03T15:05:28;99854.22;;;21.85;42.15
43312;BME280;30041;48.300;16.352;2023-03-03T15:07:56;99845.41;;;21.90;41.94
43312;BME280;30041;48.300;16.352;2023-03-03T15:10:49;99845.06;;;21.86;41.95
43312;BME280;30041;48.300;16.352;2023-03-03T15:18:27;99840.84;;;21.90;41.86
43312;BME280;30041;48.300;16.352;2023-03-03T15:21:16;99839.41;;;21.88;41.72
43312;BME280;30041;48.300;16.352;2023-03-03T15:24:11;99838.38;;;21.89;41.89
43312;BME280;30041;48.300;16.352;2023-03-03T15:26:53;99839.31;;;21.83;41.91
43312;BME280;30041;48.300;16.352;2023-03-03T15:29:36;99840.28;;;21.88;41.79
43312;BME280;30041;48.300;16.352;2023-03-03T15:40:12;99835.69;;;21.89;41.87
43312;BME280;30041;48.300;16.352;2023-03-03T15:42:49;99838.16;;;21.90;41.66
43312;BME280;30041;48.300;16.352;2023-03-03T15:47:52;99836.16;;;21.86;41.72
43312;BME280;30041;48.300;16.352;2023-03-03T15:56:41;99840.13;;;21.83;41.63